North Platte, NE

3:32 PM CST on December 17, 2014 (GMT -0600)
Searle | Change Station
CLOSE
Current Station
Airport
Location: Ogallala,
Elevation: 3278 ft
Nearby Weather Stations

Elev 3278 ft 41.12 °N, 101.77 °W | Updated 17 minutes ago

Overcast
Overcast
23 °F
Feels Like 14 °F
N
7
Wind Variable Wind from SSW

Today
High -- | Low -- °F
--% Chance of Precip.
Yesterday
High -- | Low -- °F
Precip. -- in
8:02 AM 5:15 PM
Waning Crescent, 19% visible
Pressure 30.04 in
Visibility 10.0 miles
Clouds Overcast 600 ft
Windchill 14 °F
Dew Point 21 °F
Humidity 94%
Rainfall 0.01 in
Snow Depth Not available.
UV 0 out of 12
Pollen .10 out of 12
Air Quality Not available.
Flu Activity Not available.
METAR KOGA 172115Z AUTO 20006KT 10SM OVC006 M05/M06 A3004 RMK AO2 T10511059

More Conditions Fewer Conditions

Pressure 30.04 in
Visibility 10.0 miles
Clouds Overcast 600 ft
Windchill 14 °F
Dew Point 21 °F
Humidity 94%
Rainfall 0.01 in
Snow Depth Not available.
UV 0 out of 12
Pollen .10 out of 12
Air Quality Not available.
Flu Activity Not available.
METAR KOGA 172115Z AUTO 20006KT 10SM OVC006 M05/M06 A3004 RMK AO2 T10511059

More Conditions Fewer Conditions

Nowcast | as of 1:58 PM CST on December 17, 2014

Patchy freezing drizzle will continue across the area through 4 PM CST...affecting portions of Highway 83 through Frontier...Lincoln and Logan County...as well as portions of southwest Nebraska from Broken Bow to Ogallala to Imperial. As a result some slick spots are possible on sidewalks and other area roadways and bridges. In addition...fog may reduce visibilities at times to less than one mile in portions of southwest Nebraska.

×

10-Day Weather Forecast

Almanac

Astronomy

Dec. 17, 2014 Rise Set
Actual Time
Civil Twilight
Nautical Twilight
Astronomical Twilight
Moon
Length of Visible Light
Length of Day
Tomorrow will be .
, % of the Moon is Illuminated

Today's Extremes

State Highs State Lows

Community

WunderPhotos

Upload Photos

1,778,807 photos uploaded!

WunderBlogs® & News

Nearby

Air Quality

  Air Quality AQ Index Pollutant
Not available.

Snow Depth

Station Depth Elevation

Earthquake Activity

City Distance Mag. Time & Date
Minimum magnitude displayed is 2.5.

Coastal Water Temperatures

Place Temperature

Nearby Weather Stations